Terminal Aerodrome Forecast
Issued by NWS

Home | Current Version | Previous Version | Text Only | Print | Product List | Glossary On
Versions: 1 2 3 4 5 6 7 8 9 10 11 12 13 14 15 16
000
FTUS43 KOAX 042148 CCA
TAFBFF
TAF COR
KBFF 042148Z 0422/0518 13010KT P6SM VCTS BKN060CB
      TEMPO 0422/0502 VRB20G30KT 1/2SM +TSRA BKN040CB
     FM050300 VRB05KT P6SM SCT100
     FM051000 VRB05KT 6SM BR VCFG SCT007
     FM051500 VRB05KT P6SM SKC=

USA.gov is the U.S. government's official web portal to all federal, state and local government web resources and services.